Time;durP1;ratioP1;P1;durP2;ratioP2;P2;SDS_P1;SDS_P2;PMS_P1;PMS_P2;Temp;Humidity;BMP_temperature;BMP_pressure;BME280_temperature;BME280_humidity;BME280_pressure;Samples;Min_cycle;Max_cycle;Signal;HPM_P1;HPM_P2
2022/05/07 00:01:48;;;;;;;45.13;35.13;;;;;;;;;;5034471;28;20076;-81
2022/05/07 00:04:14;;;;;;;48.78;36.13;;;;;;;;;;5034341;28;20745;-81
2022/05/07 00:06:40;;;;;;;52.13;37.53;;;;;;;;;;5033886;28;20131;-81
2022/05/07 00:09:06;;;;;;;51.80;35.67;;;;;;;;;;5032409;28;20119;-82
2022/05/07 00:11:32;;;;;;;42.75;33.70;;;;;;;;;;5036693;28;20595;-81
2022/05/07 00:13:58;;;;;;;46.22;33.90;;;;;;;;;;5015027;28;20384;-81
2022/05/07 00:19:09;;;;;;;46.95;33.85;;;;;;;;;;5034996;28;20103;-81
2022/05/07 00:21:35;;;;;;;34.40;27.90;;;;;;;;;;5038363;28;20048;-81
2022/05/07 00:24:02;;;;;;;42.50;29.38;;;;;;;;;;5020110;28;20044;-81
2022/05/07 00:26:29;;;;;;;58.35;37.80;;;;;;;;;;5005323;28;20553;-81
2022/05/07 00:28:55;;;;;;;50.35;36.28;;;;;;;;;;5037623;28;20716;-80
2022/05/07 00:31:21;;;;;;;50.00;36.75;;;;;;;;;;5033866;28;20037;-82
2022/05/07 00:33:47;;;;;;;58.63;37.85;;;;;;;;;;5019472;28;20074;-82
2022/05/07 00:36:13;;;;;;;47.63;34.40;;;;;;;;;;5041675;28;20497;-82
2022/05/07 00:38:39;;;;;;;47.78;35.42;;;;;;;;;;5036284;28;20055;-81
2022/05/07 00:41:05;;;;;;;53.22;36.90;;;;;;;;;;5037573;28;20151;-82
2022/05/07 00:43:39;;;;;;;48.55;35.85;;;;;;;;;;5035282;28;20079;-81
2022/05/07 00:46:06;;;;;;;47.72;35.22;;;;;;;;;;5037522;28;20097;-82
2022/05/07 00:48:32;;;;;;;52.75;37.00;;;;;;;;;;5036171;28;20072;-82
2022/05/07 00:53:45;;;;;;;46.20;31.95;;;;;;;;;;5035703;28;20177;-81
2022/05/07 00:56:12;;;;;;;42.55;33.05;;;;;;;;;;5017750;28;20073;-82
2022/05/07 00:58:38;;;;;;;48.25;36.75;;;;;;;;;;5033763;28;20512;-82
2022/05/07 01:01:05;;;;;;;45.63;34.85;;;;;;;;;;5018664;28;20041;-82
2022/05/07 01:03:31;;;;;;;46.60;33.83;;;;;;;;;;5035148;28;20044;-81
2022/05/07 01:05:59;;;;;;;48.83;35.63;;;;;;;;;;5018493;28;20191;-82
2022/05/07 01:08:25;;;;;;;42.53;32.55;;;;;;;;;;4987639;28;20051;-82
2022/05/07 01:10:56;;;;;;;50.83;37.13;;;;;;;;;;5035975;28;20107;-81
2022/05/07 01:13:23;;;;;;;52.63;39.10;;;;;;;;;;5020666;28;20101;-81
2022/05/07 01:15:54;;;;;;;52.50;37.05;;;;;;;;;;5000687;28;20045;-81
2022/05/07 01:18:20;;;;;;;51.92;35.50;;;;;;;;;;5020817;28;20041;-82
2022/05/07 01:20:47;;;;;;;49.40;34.83;;;;;;;;;;5005688;28;20048;-81
2022/05/07 01:23:16;;;;;;;55.47;39.47;;;;;;;;;;5036823;28;20040;-81
2022/05/07 01:25:42;;;;;;;48.95;36.47;;;;;;;;;;5024788;28;20049;-80
2022/05/07 01:28:08;;;;;;;52.58;37.63;;;;;;;;;;5043059;28;20374;-80
2022/05/07 01:30:34;;;;;;;59.83;42.38;;;;;;;;;;5022171;28;20493;-81
2022/05/07 01:33:00;;;;;;;58.03;40.72;;;;;;;;;;5018874;28;20185;-80
2022/05/07 01:35:26;;;;;;;60.42;41.05;;;;;;;;;;5040297;28;20543;-81
2022/05/07 01:37:52;;;;;;;54.20;40.00;;;;;;;;;;5035847;28;20053;-80
2022/05/07 01:40:18;;;;;;;63.25;44.45;;;;;;;;;;5032237;28;20080;-81
2022/05/07 01:42:44;;;;;;;66.97;45.58;;;;;;;;;;5036876;28;20055;-82
2022/05/07 01:45:10;;;;;;;72.20;49.13;;;;;;;;;;5019723;28;20080;-81
2022/05/07 01:50:23;;;;;;;75.45;49.40;;;;;;;;;;5037109;28;20091;-80
2022/05/07 01:52:49;;;;;;;71.28;48.67;;;;;;;;;;4994946;28;20084;-82
2022/05/07 01:55:15;;;;;;;76.80;49.30;;;;;;;;;;5036700;28;20536;-81
2022/05/07 01:57:41;;;;;;;73.50;50.03;;;;;;;;;;5017497;28;20455;-81
2022/05/07 02:00:08;;;;;;;71.68;51.33;;;;;;;;;;5037094;28;20519;-80
2022/05/07 02:02:34;;;;;;;77.32;50.58;;;;;;;;;;5016917;28;20072;-81
2022/05/07 02:05:02;;;;;;;70.55;48.20;;;;;;;;;;5035884;28;20049;-81
2022/05/07 02:07:28;;;;;;;71.45;49.55;;;;;;;;;;5037058;28;20409;-82
2022/05/07 02:09:54;;;;;;;76.22;51.03;;;;;;;;;;5035440;28;20033;-81
2022/05/07 02:12:20;;;;;;;75.60;51.95;;;;;;;;;;5034038;28;20055;-81
2022/05/07 02:14:46;;;;;;;77.50;51.40;;;;;;;;;;5033979;28;20053;-81
2022/05/07 02:17:12;;;;;;;80.78;53.63;;;;;;;;;;5033812;28;20128;-81
2022/05/07 02:19:38;;;;;;;87.30;53.70;;;;;;;;;;5036063;28;20029;-81
2022/05/07 02:22:04;;;;;;;83.13;55.30;;;;;;;;;;5036288;28;20627;-82
2022/05/07 02:24:30;;;;;;;76.15;52.80;;;;;;;;;;5035176;28;20056;-80
2022/05/07 02:26:56;;;;;;;78.80;53.17;;;;;;;;;;5036257;28;20041;-81
2022/05/07 02:29:22;;;;;;;86.88;54.50;;;;;;;;;;5033778;28;20471;-81
2022/05/07 02:32:05;;;;;;;78.85;52.22;;;;;;;;;;5035724;28;20045;-81
2022/05/07 02:34:34;;;;;;;86.95;55.72;;;;;;;;;;5033377;28;20055;-81
2022/05/07 02:37:00;;;;;;;88.53;53.63;;;;;;;;;;5015129;28;20571;-82
2022/05/07 02:39:26;;;;;;;85.78;55.22;;;;;;;;;;5016486;28;20056;-81
2022/05/07 02:44:39;;;;;;;88.43;55.28;;;;;;;;;;5034878;28;20080;-80
2022/05/07 02:47:05;;;;;;;89.18;55.10;;;;;;;;;;5014503;28;20163;-81
2022/05/07 02:49:34;;;;;;;78.90;54.10;;;;;;;;;;5034334;28;20052;-81
2022/05/07 02:52:03;;;;;;;87.38;54.90;;;;;;;;;;5036719;28;20044;-81
2022/05/07 02:54:29;;;;;;;87.63;54.50;;;;;;;;;;5033735;28;20052;-81
2022/05/07 02:56:56;;;;;;;81.95;54.28;;;;;;;;;;5035831;28;20717;-81
2022/05/07 02:59:22;;;;;;;83.88;54.40;;;;;;;;;;5035288;28;20508;-81
2022/05/07 03:01:48;;;;;;;76.50;52.92;;;;;;;;;;5018590;28;20045;-81
2022/05/07 03:04:14;;;;;;;76.75;52.22;;;;;;;;;;5014924;28;20044;-82
2022/05/07 03:06:40;;;;;;;79.43;52.80;;;;;;;;;;5034743;28;20838;-81
2022/05/07 03:09:06;;;;;;;73.88;52.28;;;;;;;;;;5036487;28;20128;-80
2022/05/07 03:11:34;;;;;;;76.03;52.67;;;;;;;;;;5035770;28;20132;-82
2022/05/07 03:14:03;;;;;;;77.63;52.50;;;;;;;;;;5017285;28;20036;-81
2022/05/07 03:16:30;;;;;;;78.85;51.70;;;;;;;;;;5033290;28;20037;-81
2022/05/07 03:18:56;;;;;;;82.55;52.35;;;;;;;;;;5033801;28;20063;-81
2022/05/07 03:21:22;;;;;;;78.53;52.13;;;;;;;;;;5035787;28;20130;-81
2022/05/07 03:23:48;;;;;;;76.85;51.25;;;;;;;;;;5017537;28;20558;-81
2022/05/07 03:26:16;;;;;;;76.03;51.80;;;;;;;;;;5035567;28;20045;-81
2022/05/07 03:28:42;;;;;;;79.57;51.97;;;;;;;;;;5034843;28;20064;-81
2022/05/07 03:31:08;;;;;;;71.10;50.28;;;;;;;;;;5036648;28;20036;-81
2022/05/07 03:33:34;;;;;;;77.03;50.10;;;;;;;;;;5033221;28;20040;-81
2022/05/07 03:36:00;;;;;;;75.40;49.65;;;;;;;;;;5033794;28;20056;-81
2022/05/07 03:38:27;;;;;;;71.85;49.83;;;;;;;;;;5036186;28;20049;-82
2022/05/07 03:40:53;;;;;;;70.75;48.70;;;;;;;;;;5035715;28;20072;-81
2022/05/07 03:43:19;;;;;;;78.03;49.78;;;;;;;;;;5017874;28;20048;-81
2022/05/07 03:45:45;;;;;;;69.18;49.53;;;;;;;;;;5019626;28;20447;-82
2022/05/07 03:48:11;;;;;;;75.30;51.00;;;;;;;;;;5034311;28;20056;-81
2022/05/07 03:50:37;;;;;;;76.43;50.10;;;;;;;;;;5034368;28;20140;-80
2022/05/07 03:56:08;;;;;;;;;;;;;;;;;;4963823;28;20498;-82
2022/05/07 03:58:35;;;;;;;68.95;48.55;;;;;;;;;;4981636;28;19925;-81
2022/05/07 04:01:01;;;;;;;73.20;50.72;;;;;;;;;;5021062;28;20061;-80
2022/05/07 04:03:28;;;;;;;75.40;51.25;;;;;;;;;;5049973;28;20353;-80
2022/05/07 04:05:55;;;;;;;78.68;51.92;;;;;;;;;;5051396;28;20049;-81
2022/05/07 04:08:21;;;;;;;86.15;55.38;;;;;;;;;;5029575;28;20048;-81
2022/05/07 04:10:48;;;;;;;79.35;54.55;;;;;;;;;;5021447;28;20044;-81
2022/05/07 04:13:15;;;;;;;84.28;55.58;;;;;;;;;;5019603;28;20070;-80
2022/05/07 04:15:44;;;;;;;86.55;55.20;;;;;;;;;;5021662;28;20060;-80
2022/05/07 04:18:11;;;;;;;87.40;56.92;;;;;;;;;;5037238;28;20052;-81
2022/05/07 04:20:37;;;;;;;85.82;57.00;;;;;;;;;;5040541;28;20087;-82
2022/05/07 04:23:04;;;;;;;84.80;57.53;;;;;;;;;;5035259;28;20036;-81
2022/05/07 04:25:30;;;;;;;99.60;62.28;;;;;;;;;;5033526;28;20045;-82
2022/05/07 04:27:57;;;;;;;89.75;58.75;;;;;;;;;;4993677;28;20091;-81
2022/05/07 04:30:24;;;;;;;92.65;58.67;;;;;;;;;;5034222;28;20136;-81
2022/05/07 04:32:50;;;;;;;93.45;61.17;;;;;;;;;;5038108;28;20049;-81
2022/05/07 04:35:17;;;;;;;91.85;59.25;;;;;;;;;;5037193;28;20066;-81
2022/05/07 04:37:43;;;;;;;93.55;58.72;;;;;;;;;;5035310;28;20484;-81
2022/05/07 04:40:12;;;;;;;86.50;57.78;;;;;;;;;;5037537;28;20052;-81
2022/05/07 04:42:38;;;;;;;94.25;59.08;;;;;;;;;;5035773;28;20049;-81
2022/05/07 04:45:04;;;;;;;94.28;60.40;;;;;;;;;;5037680;28;20049;-80
2022/05/07 04:47:30;;;;;;;89.95;58.50;;;;;;;;;;5031154;28;20107;-81
2022/05/07 04:49:57;;;;;;;93.63;61.35;;;;;;;;;;5017809;28;20044;-81
2022/05/07 04:52:23;;;;;;;86.47;55.30;;;;;;;;;;5037154;28;20505;-82
2022/05/07 04:54:49;;;;;;;84.07;56.28;;;;;;;;;;5036172;28;20057;-80
2022/05/07 04:57:15;;;;;;;89.50;57.55;;;;;;;;;;5034382;28;20047;-81
2022/05/07 04:59:41;;;;;;;87.53;57.45;;;;;;;;;;5016517;28;20052;-81
2022/05/07 05:02:07;;;;;;;86.75;57.50;;;;;;;;;;5035376;28;20029;-80
2022/05/07 05:04:33;;;;;;;83.93;56.28;;;;;;;;;;5032965;28;20059;-80
2022/05/07 05:06:59;;;;;;;79.53;57.10;;;;;;;;;;5036402;28;20037;-80
2022/05/07 05:09:25;;;;;;;88.22;56.13;;;;;;;;;;5018464;28;20044;-79
2022/05/07 05:11:51;;;;;;;81.82;55.33;;;;;;;;;;5019753;28;20411;-80
2022/05/07 05:17:03;;;;;;;90.68;58.33;;;;;;;;;;5035339;28;20052;-81
2022/05/07 05:19:29;;;;;;;90.60;59.67;;;;;;;;;;5036883;28;20088;-81
2022/05/07 05:21:55;;;;;;;84.22;55.53;;;;;;;;;;5014325;28;20125;-80
2022/05/07 05:24:21;;;;;;;81.07;56.10;;;;;;;;;;5028258;28;20118;-79
2022/05/07 05:26:47;;;;;;;77.18;54.10;;;;;;;;;;5015745;28;20413;-80
2022/05/07 05:29:14;;;;;;;82.35;56.35;;;;;;;;;;5005218;28;20041;-81
2022/05/07 05:31:40;;;;;;;84.97;56.53;;;;;;;;;;5034737;28;20103;-81
2022/05/07 05:34:06;;;;;;;89.10;56.63;;;;;;;;;;5023409;28;20452;-80
2022/05/07 05:36:32;;;;;;;80.35;55.42;;;;;;;;;;4997397;28;20087;-80
2022/05/07 05:38:59;;;;;;;83.63;56.67;;;;;;;;;;5037326;28;20901;-81
2022/05/07 05:41:25;;;;;;;82.50;56.13;;;;;;;;;;5037712;28;20094;-81
2022/05/07 05:43:51;;;;;;;81.75;55.10;;;;;;;;;;5016730;28;20051;-80
2022/05/07 05:46:18;;;;;;;86.10;57.88;;;;;;;;;;5018543;28;20053;-80
2022/05/07 05:48:44;;;;;;;85.40;56.22;;;;;;;;;;5014513;28;20045;-79
2022/05/07 05:51:10;;;;;;;89.20;56.83;;;;;;;;;;5017983;28;20052;-80
2022/05/07 05:53:36;;;;;;;82.55;57.85;;;;;;;;;;5001798;28;20068;-80
2022/05/07 05:56:02;;;;;;;86.07;55.63;;;;;;;;;;5037426;28;20045;-79
2022/05/07 05:58:35;;;;;;;82.80;56.22;;;;;;;;;;5039132;28;20049;-80
2022/05/07 06:01:02;;;;;;;85.85;57.63;;;;;;;;;;5014537;28;20049;-80
2022/05/07 06:03:29;;;;;;;90.40;53.83;;;;;;;;;;5032710;28;20037;-80
2022/05/07 06:05:55;;;;;;;77.07;54.08;;;;;;;;;;5015998;28;20040;-80
2022/05/07 06:08:21;;;;;;;73.75;52.17;;;;;;;;;;5035458;28;20049;-80
2022/05/07 06:10:51;;;;;;;79.60;52.15;;;;;;;;;;5036176;28;20045;-80
2022/05/07 06:13:18;;;;;;;80.30;51.95;;;;;;;;;;5019847;28;20052;-79
2022/05/07 06:15:45;;;;;;;74.57;51.95;;;;;;;;;;5034142;28;20041;-80
2022/05/07 06:18:12;;;;;;;79.57;49.58;;;;;;;;;;5035020;28;20122;-78
2022/05/07 06:20:38;;;;;;;71.90;49.72;;;;;;;;;;5013338;28;20123;-77
2022/05/07 06:23:04;;;;;;;76.07;49.72;;;;;;;;;;5035817;28;20064;-77
2022/05/07 06:28:17;;;;;;;77.47;52.55;;;;;;;;;;5017957;28;20458;-78
2022/05/07 06:30:43;;;;;;;77.32;50.67;;;;;;;;;;5019106;28;20055;-77
2022/05/07 06:33:10;;;;;;;68.55;47.15;;;;;;;;;;5018761;28;20515;-79
2022/05/07 06:35:37;;;;;;;71.00;48.47;;;;;;;;;;5001419;28;20461;-78
2022/05/07 06:38:03;;;;;;;68.90;47.58;;;;;;;;;;5038816;28;20067;-78
2022/05/07 06:40:29;;;;;;;71.20;48.20;;;;;;;;;;5011392;28;20042;-79
2022/05/07 06:42:55;;;;;;;61.55;44.55;;;;;;;;;;5048706;28;20037;-79
2022/05/07 06:45:22;;;;;;;65.70;45.22;;;;;;;;;;5030858;28;20095;-78
2022/05/07 06:47:48;;;;;;;63.88;44.40;;;;;;;;;;5031483;28;20037;-80
2022/05/07 06:50:14;;;;;;;60.30;40.42;;;;;;;;;;5044641;28;20448;-78
2022/05/07 06:52:46;;;;;;;63.30;42.63;;;;;;;;;;5047226;28;20076;-80
2022/05/07 06:55:16;;;;;;;61.13;42.05;;;;;;;;;;5029876;28;20512;-80
2022/05/07 06:57:43;;;;;;;62.00;43.80;;;;;;;;;;5038059;28;20914;-78
2022/05/07 07:00:10;;;;;;;61.78;45.33;;;;;;;;;;5056731;28;20093;-77
2022/05/07 07:02:36;;;;;;;57.58;41.17;;;;;;;;;;5032906;28;20040;-79
2022/05/07 07:05:03;;;;;;;51.67;38.50;;;;;;;;;;5028030;28;21080;-80
2022/05/07 07:07:29;;;;;;;55.05;39.13;;;;;;;;;;5026372;28;20588;-78
2022/05/07 07:09:55;;;;;;;55.22;38.67;;;;;;;;;;5030281;28;20049;-79
2022/05/07 07:12:22;;;;;;;46.83;36.92;;;;;;;;;;5030377;28;20071;-80
2022/05/07 07:14:48;;;;;;;53.33;37.78;;;;;;;;;;5041222;28;20128;-77
2022/05/07 07:17:16;;;;;;;60.92;37.53;;;;;;;;;;5040788;28;20092;-79
2022/05/07 07:19:42;;;;;;;50.58;37.83;;;;;;;;;;5021968;28;21200;-78
2022/05/07 07:22:09;;;;;;;54.03;36.40;;;;;;;;;;5024089;28;20076;-78
2022/05/07 07:24:35;;;;;;;52.10;37.55;;;;;;;;;;5035493;28;20381;-80
2022/05/07 07:27:01;;;;;;;51.97;36.85;;;;;;;;;;5023909;28;20049;-77
2022/05/07 07:29:27;;;;;;;51.65;36.47;;;;;;;;;;5020374;28;20484;-78
2022/05/07 07:31:53;;;;;;;49.10;35.80;;;;;;;;;;5041678;28;20103;-78
2022/05/07 07:34:21;;;;;;;51.72;36.00;;;;;;;;;;5033257;28;20496;-79
2022/05/07 07:36:50;;;;;;;46.70;34.28;;;;;;;;;;5026924;28;20119;-76
2022/05/07 07:39:16;;;;;;;56.45;36.78;;;;;;;;;;5017331;28;20132;-77
2022/05/07 07:41:43;;;;;;;59.88;39.35;;;;;;;;;;5035256;28;20587;-77
2022/05/07 07:44:09;;;;;;;58.95;40.60;;;;;;;;;;5018525;28;20441;-77
2022/05/07 07:49:21;;;;;;;73.65;39.83;;;;;;;;;;5033872;28;20135;-74
2022/05/07 07:51:47;;;;;;;61.88;41.35;;;;;;;;;;5036321;28;20041;-77
2022/05/07 07:54:16;;;;;;;59.17;39.05;;;;;;;;;;5034934;28;20040;-75
2022/05/07 07:56:45;;;;;;;57.55;39.33;;;;;;;;;;5034674;28;20037;-75
2022/05/07 07:59:13;;;;;;;60.25;39.35;;;;;;;;;;5033171;28;20041;-75
2022/05/07 08:01:39;;;;;;;56.70;38.13;;;;;;;;;;5017588;28;20512;-77
2022/05/07 08:04:05;;;;;;;59.45;35.83;;;;;;;;;;5015289;28;20131;-78
2022/05/07 08:06:32;;;;;;;52.58;36.50;;;;;;;;;;5011963;28;20068;-77
2022/05/07 08:11:55;;;;;;;60.75;38.13;;;;;;;;;;5028226;28;20515;-76
2022/05/07 08:14:21;;;;;;;63.70;39.60;;;;;;;;;;5007876;28;20055;-77
2022/05/07 08:16:48;;;;;;;69.72;44.95;;;;;;;;;;5042017;28;20595;-77
2022/05/07 08:19:14;;;;;;;69.93;44.20;;;;;;;;;;5046509;28;20652;-78
2022/05/07 08:21:40;;;;;;;72.70;44.13;;;;;;;;;;5040857;28;20121;-80
2022/05/07 08:24:06;;;;;;;76.30;45.58;;;;;;;;;;5014029;28;20087;-77
2022/05/07 08:26:32;;;;;;;72.50;45.28;;;;;;;;;;5006020;28;20057;-76
2022/05/07 08:28:58;;;;;;;63.47;42.50;;;;;;;;;;5040459;28;20067;-77
2022/05/07 08:31:25;;;;;;;72.30;44.55;;;;;;;;;;5024617;28;20049;-77
2022/05/07 08:33:52;;;;;;;74.22;45.22;;;;;;;;;;5041960;28;20057;-77
2022/05/07 08:36:18;;;;;;;79.43;46.17;;;;;;;;;;5052138;28;20097;-76
2022/05/07 08:38:44;;;;;;;80.60;48.10;;;;;;;;;;5027562;28;20060;-77
2022/05/07 08:41:11;;;;;;;78.10;49.25;;;;;;;;;;5033452;28;20049;-77
2022/05/07 08:43:38;;;;;;;85.38;51.53;;;;;;;;;;5021410;28;20508;-77
2022/05/07 08:46:12;;;;;;;93.70;55.67;;;;;;;;;;5044489;28;20085;-75
2022/05/07 08:48:39;;;;;;;89.85;51.85;;;;;;;;;;5032198;28;20140;-78
2022/05/07 08:51:06;;;;;;;86.28;51.33;;;;;;;;;;5045397;28;20136;-75
2022/05/07 08:53:32;;;;;;;91.35;52.88;;;;;;;;;;5028057;28;20135;-76
2022/05/07 08:55:58;;;;;;;86.95;52.22;;;;;;;;;;5035281;28;20702;-78
2022/05/07 08:58:24;;;;;;;91.78;53.35;;;;;;;;;;5034495;28;20033;-78
2022/05/07 09:00:51;;;;;;;97.80;54.60;;;;;;;;;;5018977;28;20034;-75
2022/05/07 09:03:17;;;;;;;91.25;52.28;;;;;;;;;;5036044;28;20038;-75
2022/05/07 09:05:44;;;;;;;91.40;50.65;;;;;;;;;;5036511;28;20056;-76
2022/05/07 09:08:13;;;;;;;86.88;51.80;;;;;;;;;;5035249;28;20045;-77
2022/05/07 09:10:41;;;;;;;92.60;54.72;;;15.30;99.90;;;;;;5034514;28;20040;-74
2022/05/07 09:13:08;;;;;;;97.47;56.28;;;;;;;;;;5003560;28;20049;-78
2022/05/07 09:15:35;;;;;;;87.43;53.85;;;;;;;;;;5029039;28;20068;-77
2022/05/07 09:18:01;;;;;;;90.22;58.25;;;;;;;;;;5036949;28;20055;-76
2022/05/07 09:20:29;;;;;;;86.40;55.35;;;;;;;;;;5032526;28;20086;-75
2022/05/07 09:22:55;;;;;;;85.25;58.15;;;;;;;;;;5031300;28;20128;-79
2022/05/07 09:25:23;;;;;;;79.10;52.42;;;;;;;;;;5028011;28;20068;-78
2022/05/07 09:27:54;;;;;;;82.57;53.00;;;;;;;;;;4999344;28;20045;-78
2022/05/07 09:30:27;;;;;;;80.65;52.72;;;;;;;;;;5018677;28;20038;-78
2022/05/07 09:32:55;;;;;;;70.18;48.55;;;16.20;99.90;;;;;;5019388;28;21008;-79
2022/05/07 09:38:10;;;;;;;66.03;43.08;;;;;;;;;;5038787;28;20056;-77
2022/05/07 09:40:40;;;;;;;67.60;43.85;;;;;;;;;;5041575;28;20053;-79
2022/05/07 09:43:11;;;;;;;64.93;41.60;;;16.90;99.90;;;;;;5023857;28;20041;-78
2022/05/07 09:45:38;;;;;;;57.67;37.05;;;;;;;;;;5004822;28;20401;-76
2022/05/07 09:48:05;;;;;;;47.28;33.50;;;;;;;;;;5019028;28;20045;-80
2022/05/07 09:58:33;;;;;;;40.65;27.45;;;;;;;;;;5022218;28;20068;-78
2022/05/07 10:01:12;;;;;;;36.95;25.50;;;;;;;;;;5020167;28;20037;-77
2022/05/07 10:03:53;;;;;;;35.13;23.85;;;;;;;;;;5012926;28;20734;-78
2022/05/07 10:06:19;;;;;;;31.65;20.63;;;;;;;;;;5019606;28;20103;-77
2022/05/07 10:09:04;;;;;;;29.38;19.02;;;;;;;;;;5038285;28;20064;-79
2022/05/07 10:11:30;;;;;;;27.25;15.45;;;;;;;;;;5018479;28;20043;-78
2022/05/07 10:13:58;;;;;;;20.83;13.95;;;;;;;;;;5020739;28;21142;-79
2022/05/07 10:16:28;;;;;;;17.98;12.20;;;;;;;;;;4998235;28;20031;-78
2022/05/07 10:18:55;;;;;;;23.85;15.27;;;;;;;;;;5035901;28;20036;-79
2022/05/07 10:21:23;;;;;;;25.10;16.35;;;;;;;;;;5034046;28;20041;-79
2022/05/07 10:23:56;;;;;;;23.73;17.27;;;;;;;;;;5019363;28;20060;-79
2022/05/07 10:26:23;;;;;;;23.52;17.08;;;;;;;;;;5021928;28;20057;-79
2022/05/07 10:28:50;;;;;;;27.70;16.88;;;;;;;;;;5020107;28;20507;-79
2022/05/07 10:31:18;;;;;;;19.77;15.38;;;;;;;;;;5022190;28;20059;-78
2022/05/07 10:33:44;;;;;;;20.80;14.57;;;;;;;;;;5025688;28;20040;-79
2022/05/07 10:36:11;;;;;;;28.10;20.48;;;;;;;;;;5037841;28;20053;-79
2022/05/07 10:38:42;;;;;;;25.50;17.17;;;;;;;;;;5015748;28;20053;-79
2022/05/07 10:41:17;;;;;;;22.90;17.77;;;;;;;;;;5038701;28;20397;-79
2022/05/07 10:43:55;;;;;;;24.23;17.88;;;;;;;;;;5008781;28;20116;-78
2022/05/07 10:46:23;;;;;;;27.88;18.83;;;;;;;;;;4994567;28;20076;-79
2022/05/07 10:48:50;;;;;;;26.85;18.75;;;;;;;;;;5021260;28;20488;-80
2022/05/07 10:51:18;;;;;;;22.98;17.95;;;;;;;;;;5034078;28;20075;-80
2022/05/07 10:53:44;;;;;;;21.10;15.80;;;;;;;;;;5020822;28;20713;-79
2022/05/07 10:56:17;;;;;;;21.83;15.65;;;;;;;;;;5033503;28;20040;-79
2022/05/07 10:58:47;;;;;;;19.07;14.70;;;;;;;;;;5038447;28;20053;-80
2022/05/07 11:01:13;;;;;;;20.73;14.88;;;;;;;;;;5005020;28;20121;-79
2022/05/07 11:03:39;;;;;;;18.65;14.50;;;;;;;;;;5039718;28;20041;-79
2022/05/07 11:06:06;;;;;;;23.88;12.27;;;;;;;;;;5018638;28;20393;-79
2022/05/07 11:08:32;;;;;;;15.85;10.93;;;;;;;;;;5040573;28;20068;-79
2022/05/07 11:11:10;;;;;;;13.90;10.13;;;;;;;;;;5039399;28;20041;-79
2022/05/07 11:13:50;;;;;;;10.43;7.63;;;;;;;;;;5038641;28;20029;-79
2022/05/07 11:16:20;;;;;;;11.52;9.07;;;;;;;;;;5039728;28;20497;-79
2022/05/07 11:18:49;;;;;;;10.77;8.10;;;;;;;;;;5037011;28;20124;-79
2022/05/07 11:21:15;;;;;;;8.25;5.85;;;;;;;;;;5003551;28;20468;-79
2022/05/07 11:23:43;;;;;;;9.45;6.80;;;;;;;;;;5037668;28;20396;-78
2022/05/07 11:26:11;;;;;;;11.15;6.60;;;;;;;;;;5019812;28;20168;-79
2022/05/07 11:28:38;;;;;;;16.63;12.23;;;;;;;;;;5021865;28;21164;-80
2022/05/07 11:31:11;;;;;;;11.82;8.55;;;;;;;;;;5019073;28;20041;-79
2022/05/07 11:33:38;;;;;;;11.27;8.27;;;;;;;;;;5004555;28;20059;-79
2022/05/07 11:36:07;;;;;;;16.25;11.88;;;;;;;;;;5037516;28;20139;-78
2022/05/07 11:38:35;;;;;;;18.88;13.10;;;;;;;;;;5019577;28;20076;-79
2022/05/07 11:41:14;;;;;;;16.95;12.55;;;;;;;;;;5022972;28;20933;-80
2022/05/07 11:46:26;;;;;;;17.77;13.30;;;;;;;;;;5037078;28;20152;-79
2022/05/07 11:48:52;;;;;;;14.35;12.15;;;;;;;;;;5004716;28;20036;-80
2022/05/07 11:51:26;;;;;;;19.98;13.77;;;;;;;;;;5025743;28;20092;-79
2022/05/07 11:53:52;;;;;;;18.50;14.40;;;;;;;;;;5029264;28;20142;-78
2022/05/07 11:56:18;;;;;;;20.77;14.52;;;;;;;;;;5012691;28;20041;-77
2022/05/07 11:58:46;;;;;;;21.33;13.93;;;;;;;;;;5049410;28;20125;-79
2022/05/07 12:01:30;;;;;;;19.48;14.77;;;;;;;;;;5051138;28;20076;-79
2022/05/07 12:03:56;;;;;;;21.33;15.77;;;;;;;;;;5008361;28;20454;-79
2022/05/07 12:06:23;;;;;;;25.83;16.20;;;;;;;;;;5036792;28;20041;-80
2022/05/07 12:08:49;;;;;;;22.50;15.15;;;;;;;;;;5000893;28;20045;-80
2022/05/07 12:11:15;;;;;;;32.38;15.98;;;;;;;;;;5016331;28;20036;-80
2022/05/07 12:13:41;;;;;;;18.40;13.00;;;;;;;;;;5038501;28;20037;-79
2022/05/07 12:18:53;;;;;;;14.10;10.40;;;;;;;;;;5041445;28;20620;-79
2022/05/07 12:29:48;;;;;;;19.33;14.13;;;;;;;;;;5023965;28;20504;-81
2022/05/07 12:29:51;;;;;;;26.48;18.65;;;;;;;;;;5039780;28;20037;-79
2022/05/07 12:32:24;;;;;;;32.17;22.20;;;;;;;;;;5023054;28;20049;-79
2022/05/07 12:34:51;;;;;;;27.80;21.98;;;;;;;;;;5022923;28;20048;-79
2022/05/07 12:37:18;;;;;;;24.33;18.65;;;;;;;;;;5038039;28;20416;-78
2022/05/07 12:39:45;;;;;;;28.80;21.80;;;;;;;;;;5022945;28;20049;-79
2022/05/07 12:42:12;;;;;;;28.10;21.27;;;;;;;;;;5008074;28;20115;-79
2022/05/07 12:44:38;;;;;;;24.63;19.90;;;;;;;;;;5044494;28;20507;-78
2022/05/07 12:47:23;;;;;;;18.67;15.35;;;;;;;;;;5041606;28;20037;-79
2022/05/07 12:49:49;;;;;;;16.35;12.70;;;;;;;;;;5039729;28;20068;-79
2022/05/07 12:52:16;;;;;;;13.43;10.38;;;;;;;;;;5025062;28;20042;-79
2022/05/07 12:54:48;;;;;;;10.98;9.80;;;;;;;;;;5022894;28;20497;-79
2022/05/07 12:57:14;;;;;;;12.30;9.02;;;;;;;;;;5043826;28;20037;-79
2022/05/07 12:59:41;;;;;;;14.20;11.10;;;;;;;;;;5039828;28;20128;-79
2022/05/07 13:02:08;;;;;;;12.90;11.02;;;;;;;;;;5045238;28;20041;-79
2022/05/07 13:04:38;;;;;;;14.52;10.02;;;;;;;;;;5040958;28;20136;-79
2022/05/07 13:07:04;;;;;;;14.73;12.05;;;;;;;;;;5044126;28;20049;-79
2022/05/07 13:09:31;;;;;;;16.13;10.38;;;;;;;;;;5039064;28;20122;-79
2022/05/07 13:11:57;;;;;;;14.85;9.77;;;;;;;;;;5046278;28;20037;-78
2022/05/07 13:14:35;;;;;;;11.05;9.20;;;;;;;;;;5043717;28;20053;-80
2022/05/07 13:17:02;;;;;;;10.82;7.63;;;;;;;;;;5041503;28;20041;-80
2022/05/07 13:19:31;;;;;;;9.73;7.20;;;;;;;;;;5042492;28;20118;-80
2022/05/07 13:21:57;;;;;;;10.73;7.38;;;;;;;;;;5022491;28;20047;-80
2022/05/07 13:24:23;;;;;;;9.18;7.07;;;;;;;;;;5043016;28;20492;-79
2022/05/07 13:26:49;;;;;;;9.43;5.50;;;;;;;;;;5024789;28;20048;-79
2022/05/07 13:29:41;;;;;;;11.13;9.50;;;;;;;;;;5044542;28;20436;-78
2022/05/07 13:32:08;;;;;;;18.13;12.55;;;;;;;;;;5019178;28;20053;-80
2022/05/07 13:34:42;;;;;;;13.40;10.77;;;;;;;;;;5041895;28;20041;-80
2022/05/07 13:37:08;;;;;;;14.85;11.13;;;;;;;;;;5038592;28;20045;-79
2022/05/07 13:39:37;;;;;;;13.20;11.23;;;;;;;;;;5033401;28;20053;-80
2022/05/07 13:42:04;;;;;;;13.35;10.07;;;;;;;;;;5044003;28;20795;-79
2022/05/07 13:44:30;;;;;;;10.77;8.68;;;;;;;;;;5036493;28;20041;-80
2022/05/07 13:46:56;;;;;;;12.00;9.00;;;;;;;;;;5023032;28;20455;-79
2022/05/07 13:49:23;;;;;;;13.27;9.30;;;;;;;;;;5037454;28;20033;-79
2022/05/07 13:51:49;;;;;;;11.93;9.55;;;;;;;;;;5040003;28;20037;-78
2022/05/07 13:54:15;;;;;;;9.90;7.72;;;;;;;;;;5039185;28;20041;-78
2022/05/07 13:56:42;;;;;;;11.05;7.53;;;;;;;;;;5043007;28;20500;-78
2022/05/07 13:59:08;;;;;;;10.43;8.50;;;;;;;;;;5046732;28;20475;-80
2022/05/07 14:01:34;;;;;;;8.73;7.15;;;;;;;;;;5047312;28;20470;-79
2022/05/07 14:04:00;;;;;;;8.80;6.80;;;;;;;;;;5046502;28;20089;-79
2022/05/07 14:06:26;;;;;;;9.98;7.55;;;;;;;;;;5045044;28;20045;-79
2022/05/07 14:11:30;;;;;;;8.73;6.90;;;;;;;;;;5048786;22;20096;-78
2022/05/07 14:13:57;;;;;;;7.35;6.50;;;;;;;;;;5050695;28;20102;-79
2022/05/07 14:16:29;;;;;;;7.55;5.70;;;;;;;;;;5029962;28;20053;-80
2022/05/07 14:18:55;;;;;;;9.70;7.13;;;;;;;;;;5031061;28;20052;-78
2022/05/07 14:21:23;;;;;;;10.93;8.52;;;;;;;;;;5047547;28;20412;-80
2022/05/07 14:23:49;;;;;;;9.27;6.70;;;;;;;;;;5048932;28;20045;-80
2022/05/07 14:26:15;;;;;;;9.00;6.20;;;;;;;;;;5046774;28;20064;-79
2022/05/07 14:28:41;;;;;;;5.93;5.03;;;;;;;;;;5048729;28;20041;-80
2022/05/07 14:31:07;;;;;;;9.48;7.85;;;;;;;;;;5047112;28;20048;-79
2022/05/07 14:33:35;;;;;;;10.23;8.80;;;;;;;;;;5029797;28;20047;-80
2022/05/07 14:36:01;;;;;;;8.75;7.82;;;;;;;;;;5048847;28;20053;-80
2022/05/07 14:38:27;;;;;;;9.85;8.85;;;;;;;;;;5013552;28;20146;-81
2022/05/07 14:40:53;;;;;;;8.73;6.57;;;;;;;;;;5044839;28;20088;-80
2022/05/07 14:43:19;;;;;;;7.78;5.90;;;;;;;;;;5046389;28;20037;-79
2022/05/07 14:45:46;;;;;;;8.48;5.15;;;;;;;;;;5029977;28;20052;-79
2022/05/07 14:48:12;;;;;;;6.55;5.47;;;;;;;;;;5028983;28;20068;-80
2022/05/07 14:50:38;;;;;;;6.35;4.72;;;;;;;;;;5030347;28;20071;-79
2022/05/07 14:53:05;;;;;;;6.30;3.50;;;;;;;;;;5049488;28;20233;-80
2022/05/07 14:55:37;;;;;;;6.47;3.50;;;;;;;;;;5049261;28;20045;-80
2022/05/07 14:58:03;;;;;;;9.07;3.08;;;;;;;;;;5046017;28;20045;-81
2022/05/07 15:00:30;;;;;;;8.07;3.63;;;;;;;;;;5060054;28;20037;-78
2022/05/07 15:03:14;;;;;;;15.35;3.65;;;;;;;;;;5049155;28;20049;-80
2022/05/07 15:05:40;;;;;;;;;;;;;;;;;;5047903;28;20048;-80
2022/05/07 15:11:08;;;;;;;8.50;4.25;;;;;;;;;;4967494;28;20103;-79
2022/05/07 15:13:35;;;;;;;8.15;3.85;;;;;;;;;;5047571;28;20072;-79